Time;durP1;ratioP1;P1;durP2;ratioP2;P2;SDS_P1;SDS_P2;PMS_P1;PMS_P2;Temp;Humidity;BMP_temperature;BMP_pressure;BME280_temperature;BME280_humidity;BME280_pressure;Samples;Min_cycle;Max_cycle;Signal;HPM_P1;HPM_P2
2021/12/28 00:00:27;;;;;;;16.40;13.52;;;-7.80;85.70;-8.70;98922.00;;;;4942190;28;87296;-53
2021/12/28 00:02:56;;;;;;;15.88;14.02;;;-7.80;85.70;-8.70;98929.00;;;;4939528;28;87271;-54
2021/12/28 00:05:25;;;;;;;15.63;13.27;;;-7.80;85.80;-8.60;98917.00;;;;4942063;28;87074;-54
2021/12/28 00:07:51;;;;;;;16.70;13.80;;;-7.80;85.70;-8.60;98924.00;;;;4932286;28;87719;-53
2021/12/28 00:10:19;;;;;;;17.60;14.45;;;-7.70;85.80;-8.60;98930.00;;;;4932224;28;87224;-57
2021/12/28 00:12:46;;;;;;;15.70;14.00;;;-7.70;85.70;-8.60;98922.00;;;;4941542;28;86904;-63
2021/12/28 00:18:01;;;;;;;15.48;13.57;;;-7.80;85.70;-8.60;98926.00;;;;4941724;28;88617;-56
2021/12/28 00:20:40;;;;;;;15.45;13.20;;;-7.80;85.60;-8.60;98921.00;;;;4942089;28;88366;-55
2021/12/28 00:23:14;;;;;;;14.38;11.82;;;-7.70;85.10;-8.60;98925.00;;;;4942092;28;87193;-55
2021/12/28 00:25:44;;;;;;;14.80;12.32;;;-7.70;85.00;-8.60;98931.00;;;;4931307;28;86967;-56
2021/12/28 00:28:10;;;;;;;15.23;12.73;;;-7.70;84.50;-8.60;98924.00;;;;4940198;28;87704;-54
2021/12/28 00:30:37;;;;;;;15.27;12.05;;;-7.70;84.20;-8.60;98936.00;;;;4941518;28;87455;-55
2021/12/28 00:33:04;;;;;;;14.13;12.50;;;-7.70;83.80;-8.50;98930.00;;;;4928432;28;87164;-58
2021/12/28 00:35:34;;;;;;;15.57;12.82;;;-7.60;83.60;-8.50;98928.00;;;;4930440;28;87173;-56
2021/12/28 00:38:03;;;;;;;16.23;12.68;;;-7.60;83.40;-8.50;98932.00;;;;4944357;28;87457;-56
2021/12/28 00:40:30;;;;;;;15.63;12.45;;;-7.60;84.00;-8.50;98941.00;;;;4944216;28;87115;-56
2021/12/28 00:42:57;;;;;;;16.33;12.70;;;-7.70;83.70;-8.60;98929.00;;;;4943194;28;88040;-63
2021/12/28 00:45:24;;;;;;;13.88;11.75;;;-7.70;83.50;-8.60;98928.00;;;;4944419;28;87145;-62
2021/12/28 00:47:50;;;;;;;13.73;11.85;;;-7.70;83.70;-8.60;98926.00;;;;4936665;28;87608;-51
2021/12/28 00:50:18;;;;;;;15.35;12.43;;;-7.70;83.80;-8.60;98929.00;;;;4943940;28;87401;-54
2021/12/28 00:52:46;;;;;;;16.15;13.77;;;-7.80;83.70;-8.60;98928.00;;;;4944592;28;87083;-56
2021/12/28 00:55:14;;;;;;;14.55;13.05;;;-7.70;83.60;-8.70;98920.00;;;;4945092;28;86829;-62
2021/12/28 00:57:40;;;;;;;14.18;12.38;;;-7.80;83.10;-8.70;98919.00;;;;4927216;28;87680;-63
2021/12/28 01:00:12;;;;;;;13.93;11.88;;;-7.80;83.10;-8.70;98920.00;;;;4944933;28;87379;-62
2021/12/28 01:02:39;;;;;;;15.80;11.57;;;-7.80;83.30;-8.70;98935.00;;;;4945134;28;87334;-62
2021/12/28 01:05:06;;;;;;;12.82;11.02;;;-7.80;83.40;-8.70;98934.00;;;;4944951;28;87168;-62
2021/12/28 01:07:32;;;;;;;12.95;10.80;;;-7.90;83.30;-8.80;98936.00;;;;4943811;28;89655;-52
2021/12/28 01:09:58;;;;;;;12.75;11.07;;;-7.90;83.40;-8.70;98930.00;;;;4928653;28;88406;-54
2021/12/28 01:12:25;;;;;;;14.00;12.00;;;-7.80;83.30;-8.70;98936.00;;;;4944470;28;87727;-55
2021/12/28 01:14:51;;;;;;;12.18;10.85;;;-7.90;83.00;-8.70;98938.00;;;;4944935;28;87014;-56
2021/12/28 01:17:18;;;;;;;13.13;11.02;;;-7.80;83.10;-8.70;98945.00;;;;4944258;28;88938;-51
2021/12/28 01:19:44;;;;;;;12.80;10.85;;;-7.80;83.10;-8.70;98944.00;;;;4911134;28;89056;-56
2021/12/28 01:22:10;;;;;;;12.70;10.32;;;-7.80;82.90;-8.70;98940.00;;;;4929194;28;87054;-55
2021/12/28 01:24:36;;;;;;;12.50;10.95;;;-7.80;82.70;-8.70;98945.00;;;;4937466;28;86713;-52
2021/12/28 01:27:03;;;;;;;12.95;10.75;;;-7.80;82.50;-8.70;98938.00;;;;4942159;28;87573;-56
2021/12/28 01:29:29;;;;;;;12.00;10.77;;;-7.80;82.40;-8.70;98949.00;;;;4943087;28;87844;-54
2021/12/28 01:31:55;;;;;;;12.95;10.73;;;-7.80;82.60;-8.70;98947.00;;;;4943070;28;87946;-55
2021/12/28 01:34:21;;;;;;;14.18;11.25;;;-7.80;82.60;-8.70;98953.00;;;;4943892;28;87478;-54
2021/12/28 01:36:47;;;;;;;12.23;10.85;;;-7.80;83.00;-8.70;98950.00;;;;4943623;28;87538;-54
2021/12/28 01:39:14;;;;;;;13.35;11.55;;;-7.80;83.40;-8.70;98950.00;;;;4943061;28;87447;-55
2021/12/28 01:41:41;;;;;;;14.77;11.32;;;-7.80;83.40;-8.70;98962.00;;;;4944044;28;87038;-55
2021/12/28 01:44:10;;;;;;;15.13;12.35;;;-7.80;83.50;-8.70;98965.00;;;;4943442;28;87063;-55
2021/12/28 01:46:37;;;;;;;13.20;11.27;;;-7.80;83.80;-8.70;98964.00;;;;4943091;28;87783;-61
2021/12/28 01:49:09;;;;;;;13.57;11.73;;;-7.80;83.90;-8.70;98964.00;;;;4942957;28;88414;-61
2021/12/28 01:51:36;;;;;;;13.93;12.27;;;-7.80;83.90;-8.70;98964.00;;;;4943649;28;86976;-62
2021/12/28 01:54:04;;;;;;;14.98;12.23;;;-7.80;83.90;-8.70;98974.00;;;;4943302;28;86980;-61
2021/12/28 01:56:40;;;;;;;13.63;11.93;;;-7.80;84.00;-8.70;98968.00;;;;4939219;28;88445;-61
2021/12/28 01:59:09;;;;;;;13.93;12.13;;;-7.80;84.20;-8.70;98974.00;;;;4937187;28;88386;-61
2021/12/28 02:01:36;;;;;;;14.63;12.02;;;-7.80;85.00;-8.70;98978.00;;;;4943332;28;87416;-61
2021/12/28 02:04:15;;;;;;;14.10;12.50;;;-7.90;84.30;-8.80;98981.00;;;;4940026;28;87037;-61
2021/12/28 02:06:42;;;;;;;13.45;11.82;;;-7.90;84.30;-8.80;98975.00;;;;4941460;28;88724;-62
2021/12/28 02:09:09;;;;;;;14.23;12.73;;;-7.90;84.50;-8.70;98978.00;;;;4943813;28;87538;-61
2021/12/28 02:11:35;;;;;;;15.80;13.05;;;-7.90;84.40;-8.70;98979.00;;;;4928873;28;86961;-62
2021/12/28 02:14:05;;;;;;;15.50;12.50;;;-7.90;84.50;-8.70;98981.00;;;;4944154;28;86129;-62
2021/12/28 02:16:33;;;;;;;14.10;11.93;;;-7.80;84.60;-8.70;98974.00;;;;4943426;28;87581;-62
2021/12/28 02:18:59;;;;;;;15.35;12.23;;;-7.80;84.50;-8.70;98982.00;;;;4943838;28;87551;-62
2021/12/28 02:21:26;;;;;;;14.20;11.57;;;-7.80;84.30;-8.70;98980.00;;;;4943264;28;87840;-61
2021/12/28 02:23:52;;;;;;;14.20;12.65;;;-7.80;84.20;-8.70;98988.00;;;;4943180;28;87192;-63
2021/12/28 02:26:18;;;;;;;15.18;12.68;;;-7.80;84.10;-8.70;98992.00;;;;4943463;28;87738;-61
2021/12/28 02:28:44;;;;;;;14.27;12.73;;;-7.80;84.00;-8.70;98994.00;;;;4942511;28;88478;-62
2021/12/28 02:31:10;;;;;;;14.52;12.93;;;-7.80;84.20;-8.70;98994.00;;;;4932755;28;87609;-61
2021/12/28 02:33:38;;;;;;;14.85;12.52;;;-7.80;84.20;-8.70;98998.00;;;;4941550;28;86968;-62
2021/12/28 02:36:06;;;;;;;17.55;13.57;;;-7.80;84.00;-8.70;98990.00;;;;4936756;28;87089;-63
2021/12/28 02:38:33;;;;;;;16.15;13.18;;;-7.80;84.00;-8.70;98996.00;;;;4942671;28;86191;-63
2021/12/28 02:41:00;;;;;;;16.67;14.23;;;-7.80;84.20;-8.70;98990.00;;;;4926730;28;87023;-64
2021/12/28 02:43:26;;;;;;;18.25;14.88;;;-7.80;84.20;-8.60;98995.00;;;;4942499;28;87019;-63
2021/12/28 02:45:59;;;;;;;20.30;15.82;;;-7.80;84.20;-8.60;99004.00;;;;4942508;28;88690;-61
2021/12/28 02:48:26;;;;;;;19.83;15.95;;;-7.80;84.00;-8.70;99002.00;;;;4942582;28;88426;-63
2021/12/28 02:51:01;;;;;;;19.73;16.20;;;-7.80;84.00;-8.70;99006.00;;;;4942190;28;86932;-62
2021/12/28 02:53:27;;;;;;;17.50;15.55;;;-7.80;84.10;-8.70;99006.00;;;;4942345;28;87027;-62
2021/12/28 02:55:54;;;;;;;26.23;16.35;;;-7.80;84.30;-8.80;99009.00;;;;4942853;28;87680;-62
2021/12/28 02:58:30;;;;;;;19.90;15.45;;;-7.90;84.30;-8.80;99021.00;;;;4942329;28;87434;-60
2021/12/28 03:01:09;;;;;;;17.92;16.02;;;-7.90;84.30;-8.80;99025.00;;;;4942998;28;86974;-62
2021/12/28 03:03:37;;;;;;;17.15;14.73;;;-7.90;84.30;-8.80;99027.00;;;;4936776;28;86557;-62
2021/12/28 03:06:07;;;;;;;16.83;15.02;;;-7.90;84.20;-8.80;99027.00;;;;4931819;28;87162;-62
2021/12/28 03:08:37;;;;;;;17.85;15.95;;;-7.90;84.20;-8.80;99016.00;;;;4932983;28;88709;-54
2021/12/28 03:11:05;;;;;;;19.80;15.25;;;-7.90;84.30;-8.80;99022.00;;;;4940879;28;87875;-53
2021/12/28 03:13:39;;;;;;;18.17;15.80;;;-8.00;84.40;-8.90;99013.00;;;;4940956;28;87483;-55
2021/12/28 03:16:08;;;;;;;18.23;15.68;;;-8.00;84.70;-8.90;99014.00;;;;4941187;28;87717;-54
2021/12/28 03:18:35;;;;;;;24.00;15.43;;;-8.00;85.00;-8.90;99016.00;;;;4940872;28;87669;-55
2021/12/28 03:21:02;;;;;;;18.50;15.50;;;-8.00;85.10;-8.90;99017.00;;;;4933549;28;87178;-51
2021/12/28 03:23:29;;;;;;;17.77;15.13;;;-8.00;85.50;-8.90;99018.00;;;;4940986;28;87259;-53
2021/12/28 03:25:56;;;;;;;17.83;14.82;;;-8.00;85.60;-8.90;99019.00;;;;4940962;28;87648;-50
2021/12/28 03:28:27;;;;;;;17.27;15.00;;;-8.00;85.50;-8.90;99023.00;;;;4936518;28;86904;-53
2021/12/28 03:30:56;;;;;;;17.98;15.85;;;-8.00;85.80;-8.90;99025.00;;;;4941382;28;87358;-53
2021/12/28 03:33:26;;;;;;;19.60;16.42;;;-8.00;85.90;-9.00;99006.00;;;;4939956;28;87098;-54
2021/12/28 03:35:53;;;;;;;17.50;15.18;;;-8.10;85.90;-9.00;99014.00;;;;4940722;28;89119;-54
2021/12/28 03:38:19;;;;;;;20.25;15.40;;;-8.10;86.40;-9.00;99016.00;;;;4940057;28;88585;-53
2021/12/28 03:40:46;;;;;;;18.77;15.88;;;-8.10;86.60;-9.00;99010.00;;;;4933598;28;87195;-56
2021/12/28 03:43:13;;;;;;;19.63;17.55;;;-8.10;86.90;-9.10;99012.00;;;;4934848;28;87466;-61
2021/12/28 03:45:39;;;;;;;19.02;17.02;;;-8.10;86.80;-9.10;99013.00;;;;4940724;28;87968;-61
2021/12/28 03:48:05;;;;;;;19.60;16.27;;;-8.10;86.90;-9.10;99004.00;;;;4941299;28;87484;-62
2021/12/28 03:50:34;;;;;;;20.85;17.90;;;-8.20;86.90;-9.10;99016.00;;;;4940660;28;87176;-51
2021/12/28 03:53:00;;;;;;;18.25;16.33;;;-8.20;87.00;-9.20;99016.00;;;;4940299;28;86363;-54
2021/12/28 03:55:27;;;;;;;22.48;16.83;;;-8.20;87.10;-9.10;99019.00;;;;4939890;28;88005;-57
2021/12/28 03:57:59;;;;;;;17.83;15.82;;;-8.20;87.40;-9.10;99018.00;;;;4940753;28;87447;-54
2021/12/28 04:00:30;;;;;;;17.88;15.23;;;-8.20;87.50;-9.00;99033.00;;;;4940624;28;88800;-54
2021/12/28 04:02:57;;;;;;;18.63;16.63;;;-8.10;87.50;-9.00;99034.00;;;;4940398;28;87375;-57
2021/12/28 04:05:24;;;;;;;17.67;15.80;;;-8.10;87.20;-9.00;99030.00;;;;4939887;28;87685;-57
2021/12/28 04:07:50;;;;;;;17.40;14.65;;;-8.10;87.00;-8.90;99025.00;;;;4940425;28;87529;-57
2021/12/28 04:10:18;;;;;;;17.40;15.60;;;-8.10;87.00;-8.90;99043.00;;;;4940231;28;86986;-53
2021/12/28 04:12:45;;;;;;;16.15;14.23;;;-8.00;86.90;-8.90;99029.00;;;;4943543;28;86981;-54
2021/12/28 04:15:14;;;;;;;17.45;15.57;;;-8.00;86.80;-8.80;99037.00;;;;4943643;28;87752;-53
2021/12/28 04:17:41;;;;;;;19.58;16.05;;;-7.90;86.50;-8.80;99037.00;;;;4943545;28;87419;-52
2021/12/28 04:20:19;;;;;;;18.90;15.57;;;-7.90;86.40;-8.70;99043.00;;;;4944241;28;86978;-55
2021/12/28 04:22:46;;;;;;;17.02;14.77;;;-7.80;86.10;-8.70;99017.00;;;;4943026;28;87406;-53
2021/12/28 04:25:17;;;;;;;14.82;13.02;;;-7.80;86.00;-8.60;99027.00;;;;4942977;28;88661;-55
2021/12/28 04:27:44;;;;;;;17.02;12.65;;;-7.70;85.70;-8.50;99025.00;;;;4943282;28;88457;-55
2021/12/28 04:30:13;;;;;;;14.77;12.10;;;-7.60;84.90;-8.50;99034.00;;;;4943298;28;88382;-52
2021/12/28 04:32:39;;;;;;;15.27;11.32;;;-7.60;84.40;-8.40;99039.00;;;;4942515;28;87826;-53
2021/12/28 04:35:06;;;;;;;16.02;13.13;;;-7.60;83.80;-8.40;99037.00;;;;4942267;28;87688;-56
2021/12/28 04:37:33;;;;;;;13.07;11.38;;;-7.50;84.00;-8.40;99044.00;;;;4942995;28;87506;-52
2021/12/28 04:39:59;;;;;;;13.30;11.90;;;-7.50;84.00;-8.40;99050.00;;;;4943276;28;86999;-57
2021/12/28 04:42:27;;;;;;;16.85;12.48;;;-7.50;83.80;-8.30;99055.00;;;;4943245;28;86342;-52
2021/12/28 04:44:54;;;;;;;15.55;13.23;;;-7.50;83.80;-8.30;99039.00;;;;4942708;28;87624;-56
2021/12/28 04:47:20;;;;;;;14.23;12.50;;;-7.40;83.70;-8.30;99044.00;;;;4943852;28;87971;-54
2021/12/28 04:49:47;;;;;;;15.52;12.05;;;-7.40;83.40;-8.30;99052.00;;;;4942893;28;88249;-53
2021/12/28 04:52:14;;;;;;;14.93;12.40;;;-7.40;83.40;-8.20;99047.00;;;;4942977;28;87461;-52
2021/12/28 04:54:41;;;;;;;14.90;12.13;;;-7.40;83.00;-8.30;99055.00;;;;4942735;28;86983;-55
2021/12/28 04:57:07;;;;;;;17.17;12.13;;;-7.40;83.10;-8.20;99044.00;;;;4943472;28;87503;-54
2021/12/28 04:59:34;;;;;;;13.82;11.13;;;-7.40;83.00;-8.20;99051.00;;;;4943231;28;86845;-52
2021/12/28 05:02:00;;;;;;;13.95;11.70;;;-7.40;82.60;-8.20;99066.00;;;;4952941;28;86918;-55
2021/12/28 05:04:26;;;;;;;14.90;11.70;;;-7.30;82.70;-8.20;99072.00;;;;4943026;28;88494;-55
2021/12/28 05:06:54;;;;;;;12.90;10.73;;;-7.30;82.10;-8.20;99067.00;;;;4943569;28;88218;-54
2021/12/28 05:09:20;;;;;;;13.02;11.07;;;-7.30;82.10;-8.10;99071.00;;;;4942904;28;87130;-51
2021/12/28 05:11:48;;;;;;;14.13;11.00;;;-7.30;82.00;-8.10;99084.00;;;;4943013;28;87157;-55
2021/12/28 05:14:17;;;;;;;12.85;10.68;;;-7.30;81.90;-8.10;99081.00;;;;4941405;28;89525;-56
2021/12/28 05:16:43;;;;;;;12.73;10.63;;;-7.30;82.00;-8.10;99087.00;;;;4942969;28;88358;-55
2021/12/28 05:19:09;;;;;;;16.20;12.73;;;-7.20;82.00;-8.10;99091.00;;;;4942916;28;87032;-56
2021/12/28 05:21:36;;;;;;;17.00;11.60;;;-7.20;81.90;-8.10;99089.00;;;;4942650;28;87030;-55
2021/12/28 05:24:03;;;;;;;15.70;11.68;;;-7.20;81.80;-8.10;99092.00;;;;4942067;28;88244;-53
2021/12/28 05:26:30;;;;;;;16.23;12.73;;;-7.20;81.70;-8.10;99108.00;;;;4942545;28;88237;-53
2021/12/28 05:28:56;;;;;;;15.50;11.73;;;-7.20;81.10;-8.00;99103.00;;;;4940356;28;87136;-53
2021/12/28 05:31:25;;;;;;;13.95;11.00;;;-7.20;81.30;-8.00;99107.00;;;;4942544;28;86532;-55
2021/12/28 05:33:53;;;;;;;13.20;10.73;;;-7.10;81.20;-7.90;99110.00;;;;4939931;28;87655;-56
2021/12/28 05:36:20;;;;;;;15.60;11.63;;;-7.10;80.90;-7.90;99106.00;;;;4942107;28;87269;-55
2021/12/28 05:38:46;;;;;;;14.35;10.77;;;-7.10;80.90;-7.90;99105.00;;;;4941326;28;87919;-52
2021/12/28 05:41:13;;;;;;;13.43;10.50;;;-7.10;80.40;-8.00;99114.00;;;;4942219;28;87158;-51
2021/12/28 05:43:39;;;;;;;13.20;11.13;;;-7.10;80.30;-7.90;99114.00;;;;4941997;28;87586;-54
2021/12/28 05:46:05;;;;;;;10.57;8.95;;;-7.10;80.90;-7.90;99104.00;;;;4942070;28;87520;-53
2021/12/28 05:48:32;;;;;;;11.77;9.27;;;-7.10;80.10;-7.90;99125.00;;;;4943278;28;87334;-55
2021/12/28 05:50:58;;;;;;;11.00;8.48;;;-7.10;79.30;-7.90;99116.00;;;;4943068;28;87108;-53
2021/12/28 05:53:24;;;;;;;10.73;9.07;;;-7.10;78.40;-7.90;99113.00;;;;4942684;28;87232;-53
2021/12/28 05:55:50;;;;;;;9.38;7.75;;;-7.10;78.80;-7.90;99120.00;;;;4943226;28;87348;-55
2021/12/28 05:58:16;;;;;;;10.30;8.27;;;-7.10;78.30;-7.80;99119.00;;;;4943264;28;86901;-55
2021/12/28 06:00:42;;;;;;;9.98;8.20;;;-7.00;78.00;-7.80;99125.00;;;;4943313;28;87223;-54
2021/12/28 06:03:09;;;;;;;9.57;7.40;;;-7.00;78.20;-7.80;99117.00;;;;4942289;28;88609;-55
2021/12/28 06:05:35;;;;;;;9.80;7.75;;;-7.00;78.00;-7.80;99127.00;;;;4942616;28;88385;-54
2021/12/28 06:08:01;;;;;;;8.55;7.30;;;-7.00;77.70;-7.80;99126.00;;;;4942931;28;86967;-57
2021/12/28 06:10:27;;;;;;;13.90;8.07;;;-7.00;77.30;-7.80;99131.00;;;;4942584;28;87464;-58
2021/12/28 06:12:53;;;;;;;8.95;7.15;;;-7.00;77.70;-7.80;99119.00;;;;4942496;28;87722;-56
2021/12/28 06:15:20;;;;;;;10.18;8.45;;;-6.90;77.90;-7.80;99123.00;;;;4942758;28;88173;-55
2021/12/28 06:17:46;;;;;;;9.85;7.53;;;-6.90;77.80;-7.70;99124.00;;;;4942874;28;87296;-55
2021/12/28 06:20:12;;;;;;;10.57;8.05;;;-6.90;78.20;-7.70;99120.00;;;;4942726;28;86255;-54
2021/12/28 06:22:38;;;;;;;10.68;7.85;;;-6.90;78.10;-7.70;99119.00;;;;4925142;28;90634;-51
2021/12/28 06:25:07;;;;;;;10.45;8.77;;;-6.90;77.90;-7.70;99118.00;;;;4941848;28;87329;-53
2021/12/28 06:27:34;;;;;;;13.65;9.27;;;-6.90;78.50;-7.70;99107.00;;;;4941813;28;87911;-54
2021/12/28 06:30:00;;;;;;;11.07;9.48;;;-6.80;79.10;-7.60;99128.00;;;;4942195;28;87107;-55
2021/12/28 06:32:26;;;;;;;12.00;9.43;;;-6.80;79.30;-7.60;99119.00;;;;4941285;28;87885;-53
2021/12/28 06:34:52;;;;;;;12.95;9.77;;;-6.80;79.00;-7.60;99123.00;;;;4929963;28;88438;-54
2021/12/28 06:37:18;;;;;;;11.15;9.82;;;-6.80;79.00;-7.70;99127.00;;;;4941721;28;87202;-60
2021/12/28 06:39:44;;;;;;;13.25;11.27;;;-6.80;79.60;-7.70;99136.00;;;;4941931;28;87036;-52
2021/12/28 06:42:10;;;;;;;15.45;12.02;;;-6.80;79.80;-7.60;99144.00;;;;4945623;28;88715;-54
2021/12/28 06:44:36;;;;;;;12.80;11.00;;;-6.80;80.50;-7.70;99145.00;;;;4941059;28;88418;-56
2021/12/28 06:47:03;;;;;;;13.85;11.30;;;-6.80;80.70;-7.70;99148.00;;;;4941613;28;87002;-57
2021/12/28 06:49:29;;;;;;;15.02;11.80;;;-6.90;80.90;-7.70;99139.00;;;;4940522;28;87463;-52
2021/12/28 06:51:55;;;;;;;14.25;11.32;;;-6.90;80.90;-7.70;99159.00;;;;4940150;28;88525;-55
2021/12/28 06:54:21;;;;;;;16.02;12.38;;;-6.90;81.30;-7.70;99160.00;;;;4946187;28;89208;-53
2021/12/28 06:56:47;;;;;;;13.55;11.52;;;-6.90;81.40;-7.70;99165.00;;;;4941850;28;87504;-56
2021/12/28 06:59:13;;;;;;;18.48;12.45;;;-6.90;81.40;-7.70;99168.00;;;;4941275;28;87039;-53
2021/12/28 07:01:39;;;;;;;15.20;11.70;;;-6.90;81.40;-7.70;99169.00;;;;4954516;28;88270;-56
2021/12/28 07:04:05;;;;;;;14.95;12.77;;;-6.90;81.40;-7.70;99169.00;;;;4941357;28;87470;-55
2021/12/28 07:06:31;;;;;;;15.20;12.07;;;-6.90;81.40;-7.70;99174.00;;;;4941329;28;87034;-55
2021/12/28 07:08:58;;;;;;;19.65;14.23;;;-6.90;81.40;-7.70;99170.00;;;;4940739;28;86446;-57
2021/12/28 07:11:24;;;;;;;19.20;14.50;;;-6.90;81.40;-7.60;99178.00;;;;4940242;28;88293;-55
2021/12/28 07:13:50;;;;;;;16.05;14.25;;;-6.90;82.10;-7.60;99161.00;;;;4940917;28;86961;-53
2021/12/28 07:16:19;;;;;;;16.33;13.82;;;-6.80;82.10;-7.60;99169.00;;;;4941060;28;87800;-53
2021/12/28 07:18:45;;;;;;;15.60;13.88;;;-6.80;82.30;-7.60;99158.00;;;;4923760;28;87484;-55
2021/12/28 07:21:11;;;;;;;19.10;14.80;;;-6.80;81.60;-7.60;99161.00;;;;4940730;28;88298;-51
2021/12/28 07:23:37;;;;;;;17.17;14.32;;;-6.80;81.60;-7.60;99167.00;;;;4938511;28;88113;-54
2021/12/28 07:26:04;;;;;;;18.23;14.50;;;-6.80;81.80;-7.60;99170.00;;;;4941104;28;87563;-55
2021/12/28 07:28:30;;;;;;;16.58;14.57;;;-6.80;82.40;-7.60;99181.00;;;;4940602;28;87128;-56
2021/12/28 07:30:56;;;;;;;16.52;14.70;;;-6.80;82.30;-7.60;99180.00;;;;4940230;28;88536;-54
2021/12/28 07:33:22;;;;;;;17.92;16.02;;;-6.80;82.40;-7.60;99168.00;;;;4939711;28;87458;-56
2021/12/28 07:35:49;;;;;;;17.00;14.77;;;-6.80;82.40;-7.50;99189.00;;;;4947621;28;87550;-51
2021/12/28 07:38:15;;;;;;;15.88;14.10;;;-6.70;81.90;-7.50;99192.00;;;;4940155;28;87014;-56
2021/12/28 07:40:41;;;;;;;16.25;14.45;;;-6.70;81.70;-7.50;99189.00;;;;4939577;28;88605;-54
2021/12/28 07:43:07;;;;;;;16.83;13.80;;;-6.60;81.70;-7.40;99197.00;;;;4940348;28;88580;-55
2021/12/28 07:45:34;;;;;;;18.90;14.18;;;-6.60;81.70;-7.40;99198.00;;;;4949984;28;87075;-57
2021/12/28 07:48:00;;;;;;;17.00;15.20;;;-6.60;81.70;-7.40;99201.00;;;;4956308;28;87459;-54
2021/12/28 07:50:26;;;;;;;16.02;13.32;;;-6.60;81.70;-7.30;99198.00;;;;4940790;28;87552;-54
2021/12/28 07:52:52;;;;;;;15.20;13.43;;;-6.50;81.80;-7.30;99202.00;;;;4940211;28;86935;-54
2021/12/28 07:55:18;;;;;;;18.38;14.90;;;-6.50;81.70;-7.30;99201.00;;;;4940359;28;87374;-55
2021/12/28 07:57:45;;;;;;;16.40;14.57;;;-6.50;82.30;-7.30;99201.00;;;;4940945;28;86229;-56
2021/12/28 08:00:16;;;;;;;16.77;14.38;;;-6.50;81.60;-7.20;99189.00;;;;4940715;28;87623;-55
2021/12/28 08:02:45;;;;;;;17.58;13.75;;;-6.50;81.30;-7.20;99202.00;;;;4940330;28;87225;-54
2021/12/28 08:05:13;;;;;;;15.73;14.07;;;-6.40;81.30;-7.10;99208.00;;;;4939826;28;88238;-52
2021/12/28 08:07:40;;;;;;;15.82;14.10;;;-6.40;81.20;-7.10;99215.00;;;;4940140;28;86986;-57
2021/12/28 08:10:08;;;;;;;17.23;14.25;;;-6.40;81.00;-7.10;99203.00;;;;4934589;28;88891;-57
2021/12/28 08:12:34;;;;;;;15.57;13.40;;;-6.30;81.20;-7.00;99205.00;;;;4940128;28;88600;-55
2021/12/28 08:15:03;;;;;;;19.77;14.90;;;-6.30;80.90;-7.00;99199.00;;;;4939750;28;87018;-54
2021/12/28 08:17:30;;;;;;;15.77;13.43;;;-6.30;81.00;-7.00;99205.00;;;;4940511;28;86964;-54
2021/12/28 08:19:57;;;;;;;15.95;13.43;;;-6.20;81.00;-6.90;99199.00;;;;4939941;28;87521;-53
2021/12/28 08:22:24;;;;;;;15.68;13.77;;;-6.20;80.60;-6.90;99214.00;;;;4940568;28;86402;-56
2021/12/28 08:24:50;;;;;;;16.52;13.52;;;-6.20;80.70;-6.90;99195.00;;;;4940215;28;87618;-56
2021/12/28 08:27:16;;;;;;;17.60;14.68;;;-6.20;80.70;-6.80;99195.00;;;;4923552;28;87550;-53
2021/12/28 08:29:42;;;;;;;16.33;13.23;;;-6.10;81.00;-6.80;99205.00;;;;4939657;28;88830;-55
2021/12/28 08:32:08;;;;;;;15.90;13.05;;;-6.10;80.70;-6.80;99197.00;;;;4939388;28;88543;-54
2021/12/28 08:34:34;;;;;;;14.13;12.63;;;-6.10;80.60;-6.80;99206.00;;;;4938770;28;87387;-55
2021/12/28 08:37:00;;;;;;;17.38;14.40;;;-6.00;80.60;-6.80;99201.00;;;;4939971;28;87085;-56
2021/12/28 08:39:26;;;;;;;14.02;12.52;;;-6.00;80.70;-6.70;99200.00;;;;4939462;28;87836;-55
2021/12/28 08:41:52;;;;;;;14.98;12.55;;;-6.00;80.60;-6.80;99209.00;;;;4939459;28;88742;-52
2021/12/28 08:44:19;;;;;;;16.30;13.77;;;-6.00;80.70;-6.80;99205.00;;;;4939501;28;87156;-55
2021/12/28 08:46:45;;;;;;;15.52;12.80;;;-6.10;80.60;-6.80;99201.00;;;;4940601;28;86500;-54
2021/12/28 08:49:11;;;;;;;14.85;13.25;;;-6.00;81.40;-6.60;99195.00;;;;4940319;28;87920;-57
2021/12/28 08:51:39;;;;;;;13.98;12.48;;;-5.90;80.60;-6.60;99194.00;;;;4939622;28;87501;-52
2021/12/28 08:54:05;;;;;;;15.25;12.85;;;-5.80;80.10;-6.50;99186.00;;;;4938935;28;88156;-51
2021/12/28 08:56:31;;;;;;;15.80;13.02;;;-5.80;79.80;-6.50;99191.00;;;;4954731;28;87576;-60
2021/12/28 08:58:57;;;;;;;14.55;12.95;;;-5.80;80.20;-6.60;99190.00;;;;4943277;28;87696;-59
2021/12/28 09:01:23;;;;;;;16.73;13.13;;;-5.80;79.80;-6.60;99194.00;;;;4942913;28;87367;-61
2021/12/28 09:03:49;;;;;;;15.57;13.68;;;-5.90;80.20;-6.60;99195.00;;;;4943437;28;87026;-61
2021/12/28 09:06:15;;;;;;;15.60;12.98;;;-5.90;80.40;-6.70;99190.00;;;;4943000;28;87013;-61
2021/12/28 09:08:41;;;;;;;15.73;13.43;;;-5.90;79.90;-6.80;99193.00;;;;4943539;28;87789;-62
2021/12/28 09:11:08;;;;;;;16.05;13.55;;;-6.00;80.30;-7.00;99197.00;;;;4938476;28;88462;-62
2021/12/28 09:13:34;;;;;;;16.95;13.80;;;-6.20;80.90;-7.00;99206.00;;;;4943556;28;87331;-61
2021/12/28 09:16:00;;;;;;;17.10;13.20;;;-6.10;81.40;-6.90;99213.00;;;;4942994;28;87010;-62
2021/12/28 09:18:26;;;;;;;14.98;12.70;;;-6.10;81.40;-6.80;99199.00;;;;4942778;28;88455;-64
2021/12/28 09:20:52;;;;;;;17.02;12.65;;;-6.00;81.50;-6.70;99202.00;;;;4942331;28;88318;-63
2021/12/28 09:23:18;;;;;;;15.88;12.63;;;-6.00;81.00;-6.60;99217.00;;;;4942665;28;87290;-61
2021/12/28 09:25:44;;;;;;;13.98;12.00;;;-5.90;80.90;-6.50;99211.00;;;;4942886;28;87445;-62
2021/12/28 09:28:10;;;;;;;14.02;12.50;;;-5.80;80.50;-6.50;99210.00;;;;4943074;28;87707;-61
2021/12/28 09:30:39;;;;;;;18.67;14.77;;;-5.70;80.20;-6.40;99207.00;;;;4942172;28;87542;-61
2021/12/28 09:33:06;;;;;;;14.98;13.43;;;-5.70;79.90;-6.40;99209.00;;;;4927502;28;87068;-62
2021/12/28 09:35:32;;;;;;;16.58;13.80;;;-5.70;80.10;-6.40;99202.00;;;;4942286;28;86587;-62
2021/12/28 09:37:59;;;;;;;15.40;13.77;;;-5.70;80.10;-6.40;99209.00;;;;4942070;28;87684;-63
2021/12/28 09:40:25;;;;;;;15.13;13.48;;;-5.70;80.10;-6.50;99211.00;;;;4941955;28;87500;-62
2021/12/28 09:42:51;;;;;;;16.08;13.38;;;-5.70;80.30;-6.50;99223.00;;;;4941849;28;88195;-63
2021/12/28 09:45:17;;;;;;;18.85;14.45;;;-5.70;80.10;-6.50;99216.00;;;;4942514;28;86998;-62
2021/12/28 09:47:44;;;;;;;17.27;15.05;;;-5.70;80.30;-6.50;99216.00;;;;4942495;28;87822;-64
2021/12/28 09:50:15;;;;;;;15.43;13.68;;;-5.80;80.70;-6.50;99207.00;;;;4924902;28;87349;-63
2021/12/28 09:52:46;;;;;;;15.77;13.80;;;-5.70;80.70;-6.60;99217.00;;;;4941791;28;86929;-62
2021/12/28 09:55:15;;;;;;;16.63;14.10;;;-5.80;80.50;-6.70;99221.00;;;;4942412;28;87505;-63
2021/12/28 09:57:41;;;;;;;15.43;12.68;;;-5.80;80.60;-6.80;99217.00;;;;4942155;28;87719;-62
2021/12/28 10:00:09;;;;;;;15.15;12.43;;;-5.90;80.60;-6.80;99221.00;;;;4942904;28;87375;-62
2021/12/28 10:02:36;;;;;;;14.43;12.50;;;-6.00;80.80;-6.90;99213.00;;;;4942154;28;87201;-62
2021/12/28 10:05:18;;;;;;;14.82;13.20;;;-6.00;81.00;-6.90;99223.00;;;;4942242;28;87039;-63
2021/12/28 10:07:54;;;;;;;14.90;12.70;;;-6.00;81.30;-6.90;99232.00;;;;4921890;28;88674;-62
2021/12/28 10:10:22;;;;;;;15.32;12.85;;;-6.00;81.30;-6.90;99232.00;;;;4927566;28;88215;-62
2021/12/28 10:13:00;;;;;;;14.82;13.18;;;-6.10;81.20;-6.90;99238.00;;;;4937609;28;87017;-62
2021/12/28 10:15:31;;;;;;;16.00;12.48;;;-6.10;81.20;-7.00;99235.00;;;;4942408;28;86990;-60
2021/12/28 10:18:01;;;;;;;14.03;12.27;;;-6.10;81.20;-7.00;99225.00;;;;4942432;28;87476;-63
2021/12/28 10:20:34;;;;;;;15.80;12.07;;;-6.20;81.20;-7.00;99236.00;;;;4941647;28;87388;-62
2021/12/28 10:23:05;;;;;;;14.32;11.65;;;-6.10;81.00;-6.90;99229.00;;;;4941833;28;86960;-62
2021/12/28 10:25:48;;;;;;;14.93;11.65;;;-6.10;80.90;-6.90;99244.00;;;;4942086;28;86534;-63
2021/12/28 10:28:21;;;;;;;13.75;11.00;;;-6.00;80.70;-6.80;99245.00;;;;4941266;28;87923;-63
2021/12/28 10:30:56;;;;;;;13.25;11.15;;;-6.00;80.60;-6.80;99242.00;;;;4941292;28;87643;-63
2021/12/28 10:33:28;;;;;;;12.27;10.73;;;-5.90;80.60;-6.80;99253.00;;;;4940044;28;88090;-63
2021/12/28 10:36:00;;;;;;;12.30;11.00;;;-6.00;80.40;-6.80;99247.00;;;;4931179;28;87379;-63
2021/12/28 10:38:35;;;;;;;16.60;12.63;;;-6.00;80.50;-6.80;99253.00;;;;4940891;28;87631;-62
2021/12/28 10:41:15;;;;;;;12.50;10.77;;;-6.00;80.70;-6.80;99255.00;;;;4933198;28;88599;-63
2021/12/28 10:43:48;;;;;;;13.38;11.32;;;-5.90;80.60;-6.60;99253.00;;;;4941196;28;87091;-62